createdAt,value
2017-08-06T00:01:23.224Z,17.37
2017-08-06T00:03:51.127Z,17.39
2017-08-06T00:06:19.056Z,17.40
2017-08-06T00:08:46.971Z,17.41
2017-08-06T00:11:14.887Z,17.52
2017-08-06T00:13:42.797Z,17.53
2017-08-06T00:16:10.712Z,17.46
2017-08-06T00:18:38.610Z,17.50
2017-08-06T00:21:06.717Z,17.48
2017-08-06T00:23:34.616Z,17.51
2017-08-06T00:26:02.537Z,17.55
2017-08-06T00:28:30.473Z,17.56
2017-08-06T00:30:58.390Z,17.59
2017-08-06T00:33:26.316Z,17.62
2017-08-06T00:35:54.225Z,17.65
2017-08-06T00:38:23.023Z,17.67
2017-08-06T00:40:50.938Z,17.72
2017-08-06T00:43:18.850Z,17.75
2017-08-06T00:45:46.819Z,17.65
2017-08-06T00:48:14.902Z,17.60
2017-08-06T00:50:42.841Z,17.61
2017-08-06T00:53:10.766Z,17.64
2017-08-06T00:55:38.796Z,17.65
2017-08-06T00:58:06.698Z,17.64
2017-08-06T01:00:35.018Z,17.61
2017-08-06T01:05:37.081Z,17.46
2017-08-06T01:08:04.992Z,17.41
2017-08-06T01:10:32.939Z,17.42
2017-08-06T01:13:00.958Z,17.47
2017-08-06T01:15:29.539Z,17.51
2017-08-06T01:17:57.455Z,17.49
2017-08-06T01:20:25.372Z,17.56
2017-08-06T01:22:53.320Z,17.55
2017-08-06T01:25:21.309Z,17.52
2017-08-06T01:27:49.473Z,17.56
2017-08-06T01:30:17.401Z,17.53
2017-08-06T01:32:45.304Z,17.59
2017-08-06T01:35:13.234Z,17.57
2017-08-06T01:37:41.149Z,17.61
2017-08-06T01:40:09.069Z,17.49
2017-08-06T01:42:36.975Z,17.55
2017-08-06T01:45:04.900Z,17.49
2017-08-06T01:47:32.804Z,17.42
2017-08-06T01:50:00.749Z,17.44
2017-08-06T01:52:28.654Z,17.40
2017-08-06T01:54:56.792Z,17.36
2017-08-06T01:57:24.699Z,17.45
2017-08-06T01:59:52.611Z,17.47
2017-08-06T02:02:20.542Z,17.50
2017-08-06T02:04:48.454Z,17.37
2017-08-06T02:07:16.384Z,17.36
2017-08-06T02:09:44.289Z,17.22
2017-08-06T02:12:12.277Z,17.09
2017-08-06T02:14:40.184Z,17.18
2017-08-06T02:17:08.463Z,17.10
2017-08-06T02:19:36.365Z,17.06
2017-08-06T02:22:04.681Z,17.06
2017-08-06T02:24:32.595Z,16.98
2017-08-06T02:27:00.905Z,16.95
2017-08-06T02:29:29.074Z,16.91
2017-08-06T02:31:56.994Z,16.84
2017-08-06T02:34:24.920Z,16.69
2017-08-06T02:36:52.836Z,16.63
2017-08-06T02:39:20.750Z,16.58
2017-08-06T02:41:48.669Z,16.51
2017-08-06T02:44:16.895Z,16.41
2017-08-06T02:46:44.818Z,16.40
2017-08-06T02:49:12.894Z,16.39
2017-08-06T02:51:40.819Z,16.35
2017-08-06T02:54:08.738Z,16.30
2017-08-06T02:56:36.740Z,16.26
2017-08-06T02:59:04.658Z,16.22
2017-08-06T03:01:32.589Z,16.25
2017-08-06T03:04:00.510Z,16.21
2017-08-06T03:06:28.430Z,16.20
2017-08-06T03:08:56.349Z,16.18
2017-08-06T03:11:24.382Z,16.09
2017-08-06T03:13:52.292Z,16.03
2017-08-06T03:16:20.220Z,15.98
2017-08-06T03:18:48.152Z,15.95
2017-08-06T03:21:16.563Z,15.97
2017-08-06T03:23:44.481Z,16.00
2017-08-06T03:26:12.391Z,15.96
2017-08-06T03:28:40.315Z,15.88
2017-08-06T03:31:08.230Z,15.87
2017-08-06T03:33:36.150Z,15.81
2017-08-06T03:36:04.130Z,15.76
2017-08-06T03:38:32.196Z,15.81
2017-08-06T03:41:00.103Z,15.80
2017-08-06T03:43:28.023Z,15.86
2017-08-06T03:45:55.996Z,15.86
2017-08-06T03:48:23.967Z,15.93
2017-08-06T03:50:51.898Z,15.97
2017-08-06T03:53:19.813Z,16.05
2017-08-06T03:55:47.743Z,16.11
2017-08-06T03:58:15.660Z,16.14
2017-08-06T04:00:43.988Z,16.18
2017-08-06T04:03:11.896Z,16.21
2017-08-06T04:05:39.820Z,16.26
2017-08-06T04:08:07.727Z,16.16
2017-08-06T04:10:35.663Z,16.15
2017-08-06T04:13:03.577Z,16.15
2017-08-06T04:15:32.044Z,16.19
2017-08-06T04:17:59.960Z,16.15
2017-08-06T04:20:27.879Z,16.06
2017-08-06T04:22:55.814Z,16.11
2017-08-06T04:25:23.721Z,16.08
2017-08-06T04:27:51.646Z,16.14
2017-08-06T04:30:19.602Z,16.16
2017-08-06T04:32:47.545Z,16.35
2017-08-06T04:35:15.862Z,16.72
2017-08-06T04:37:43.834Z,17.28
2017-08-06T04:40:11.741Z,18.11
2017-08-06T04:42:39.926Z,18.73
2017-08-06T04:45:07.840Z,19.28
2017-08-06T04:47:35.757Z,19.76
2017-08-06T04:50:03.677Z,20.30
2017-08-06T04:52:31.690Z,20.79
2017-08-06T04:54:59.612Z,21.27
2017-08-06T04:57:27.514Z,22.13
2017-08-06T04:59:55.435Z,22.66
2017-08-06T05:02:23.787Z,22.77
2017-08-06T05:04:51.699Z,23.23
2017-08-06T05:07:19.607Z,23.50
2017-08-06T05:09:47.523Z,24.44
2017-08-06T05:12:15.440Z,24.85
2017-08-06T05:14:43.748Z,25.14
2017-08-06T05:17:11.678Z,25.45
2017-08-06T05:19:39.592Z,25.55
2017-08-06T05:22:07.920Z,25.83
2017-08-06T05:24:35.827Z,26.06
2017-08-06T05:27:03.760Z,25.38
2017-08-06T05:29:31.663Z,25.89
2017-08-06T05:31:59.593Z,26.03
2017-08-06T05:34:27.502Z,26.10
2017-08-06T05:36:55.780Z,25.18
2017-08-06T05:39:23.698Z,24.67
2017-08-06T05:41:51.607Z,25.26
2017-08-06T05:44:19.530Z,25.75
2017-08-06T05:46:47.435Z,26.36
2017-08-06T05:49:15.361Z,26.42
2017-08-06T05:51:43.279Z,26.77
2017-08-06T05:54:11.360Z,27.25
2017-08-06T05:56:39.287Z,27.08
2017-08-06T05:59:07.196Z,27.45
2017-08-06T06:01:35.111Z,27.78
2017-08-06T06:04:03.024Z,27.01
2017-08-06T06:06:30.958Z,27.19
2017-08-06T06:08:58.873Z,27.62
2017-08-06T06:11:27.217Z,27.95
2017-08-06T06:13:55.119Z,28.62
2017-08-06T06:16:23.053Z,28.11
2017-08-06T06:18:50.969Z,28.15
2017-08-06T06:21:19.635Z,28.49
2017-08-06T06:23:47.544Z,28.40
2017-08-06T06:26:15.448Z,28.11
2017-08-06T06:28:43.373Z,28.71
2017-08-06T06:31:11.693Z,28.47
2017-08-06T06:33:39.619Z,28.72
2017-08-06T06:36:07.526Z,29.01
2017-08-06T06:38:35.466Z,27.93
2017-08-06T06:41:03.376Z,28.04
2017-08-06T06:43:31.474Z,27.84
2017-08-06T06:45:59.434Z,28.39
2017-08-06T06:48:27.352Z,28.76
2017-08-06T06:50:55.284Z,29.13
2017-08-06T06:53:23.209Z,28.82
2017-08-06T06:55:51.129Z,27.83
2017-08-06T06:58:19.490Z,27.88
2017-08-06T07:00:47.520Z,28.28
2017-08-06T07:03:15.423Z,28.21
2017-08-06T07:05:43.415Z,28.11
2017-08-06T07:08:11.745Z,28.38
2017-08-06T07:10:39.651Z,29.11
2017-08-06T07:13:07.579Z,28.96
2017-08-06T07:15:35.495Z,29.93
2017-08-06T07:18:03.420Z,31.32
2017-08-06T07:20:31.389Z,30.28
2017-08-06T07:22:59.313Z,30.68
2017-08-06T07:25:27.624Z,30.67
2017-08-06T07:27:55.756Z,29.96
2017-08-06T07:30:23.675Z,30.72
2017-08-06T07:32:51.598Z,30.30
2017-08-06T07:35:19.917Z,30.06
2017-08-06T07:37:47.837Z,30.89
2017-08-06T07:40:15.759Z,30.09
2017-08-06T07:42:43.662Z,30.02
2017-08-06T07:45:11.572Z,29.91
2017-08-06T07:47:39.489Z,30.98
2017-08-06T07:50:07.421Z,31.30
2017-08-06T07:52:35.347Z,30.92
2017-08-06T07:55:03.559Z,31.05
2017-08-06T07:57:31.481Z,31.47
2017-08-06T07:59:59.552Z,31.28
2017-08-06T08:02:27.526Z,31.16
2017-08-06T08:04:55.446Z,31.20
2017-08-06T08:07:23.365Z,30.21
2017-08-06T08:09:51.281Z,28.95
2017-08-06T08:12:19.196Z,28.72
2017-08-06T08:14:47.109Z,28.76
2017-08-06T08:17:15.037Z,30.03
2017-08-06T08:19:42.956Z,31.24
2017-08-06T08:22:10.884Z,31.61
2017-08-06T08:24:38.797Z,32.08
2017-08-06T08:27:06.702Z,32.11
2017-08-06T08:29:34.619Z,32.46
2017-08-06T08:32:02.519Z,31.93
2017-08-06T08:34:30.461Z,31.76
2017-08-06T08:36:58.385Z,30.73
2017-08-06T08:39:26.322Z,30.59
2017-08-06T08:41:54.238Z,31.06
2017-08-06T08:44:22.593Z,31.14
2017-08-06T08:46:50.517Z,31.61
2017-08-06T08:49:18.639Z,31.33
2017-08-06T08:51:46.557Z,31.32
2017-08-06T08:54:14.485Z,32.17
2017-08-06T08:56:42.396Z,32.36
2017-08-06T08:59:10.322Z,32.14
2017-08-06T09:01:38.249Z,31.77
2017-08-06T09:04:06.177Z,31.65
2017-08-06T09:06:34.496Z,31.20
2017-08-06T09:09:02.405Z,29.58
2017-08-06T09:11:30.533Z,28.34
2017-08-06T09:13:58.449Z,27.67
2017-08-06T09:16:26.424Z,28.68
2017-08-06T09:18:54.342Z,30.27
2017-08-06T09:21:22.258Z,31.18
2017-08-06T09:23:50.183Z,29.86
2017-08-06T09:26:18.111Z,29.41
2017-08-06T09:28:46.457Z,30.13
2017-08-06T09:31:14.388Z,30.49
2017-08-06T09:33:42.329Z,31.49
2017-08-06T09:36:10.639Z,31.90
2017-08-06T09:38:38.760Z,32.53
2017-08-06T09:41:06.681Z,31.47
2017-08-06T09:43:34.591Z,30.33
2017-08-06T09:46:02.516Z,29.23
2017-08-06T09:48:30.431Z,29.61
2017-08-06T09:50:58.360Z,29.33
2017-08-06T09:53:26.264Z,28.73
2017-08-06T09:55:54.482Z,30.27
2017-08-06T09:58:22.407Z,31.30
2017-08-06T10:00:50.330Z,32.11
2017-08-06T10:03:18.239Z,32.56
2017-08-06T10:05:46.528Z,33.50
2017-08-06T10:08:14.448Z,33.55
2017-08-06T10:10:42.355Z,34.28
2017-08-06T10:13:10.281Z,33.50
2017-08-06T10:15:38.216Z,32.83
2017-08-06T10:18:06.539Z,31.67
2017-08-06T10:20:34.447Z,30.56
2017-08-06T10:23:02.376Z,30.50
2017-08-06T10:25:30.295Z,30.73
2017-08-06T10:27:58.228Z,31.48
2017-08-06T10:30:26.166Z,31.65
2017-08-06T10:32:54.421Z,32.47
2017-08-06T10:35:22.725Z,32.47
2017-08-06T10:37:50.649Z,32.40
2017-08-06T10:40:18.576Z,30.88
2017-08-06T10:42:46.482Z,30.59
2017-08-06T10:45:14.696Z,30.51
2017-08-06T10:47:42.619Z,29.54
2017-08-06T10:50:10.944Z,28.19
2017-08-06T10:52:38.867Z,27.21
2017-08-06T10:55:06.789Z,26.97
2017-08-06T10:57:35.117Z,27.80
2017-08-06T11:00:03.054Z,28.18
2017-08-06T11:02:31.824Z,28.64
2017-08-06T11:04:59.801Z,28.40
2017-08-06T11:07:28.174Z,28.43
2017-08-06T11:09:56.096Z,29.42
2017-08-06T11:12:23.998Z,29.48
2017-08-06T11:14:51.936Z,29.75
2017-08-06T11:17:20.817Z,29.95
2017-08-06T11:19:48.747Z,30.13
2017-08-06T11:22:16.663Z,29.40
2017-08-06T11:24:44.638Z,29.41
2017-08-06T11:27:12.566Z,28.82
2017-08-06T11:29:40.677Z,28.38
2017-08-06T11:32:08.579Z,27.57
2017-08-06T11:34:36.482Z,27.06
2017-08-06T11:37:04.429Z,26.85
2017-08-06T11:39:32.349Z,26.80
2017-08-06T11:42:00.289Z,26.55
2017-08-06T11:44:29.028Z,26.50
2017-08-06T11:46:57.766Z,25.95
2017-08-06T11:49:25.676Z,26.08
2017-08-06T11:51:54.051Z,25.89
2017-08-06T11:54:21.976Z,25.87
2017-08-06T11:56:49.889Z,25.56
2017-08-06T11:59:17.824Z,25.25
2017-08-06T12:01:45.743Z,24.78
2017-08-06T12:04:14.082Z,24.58
2017-08-06T12:06:41.991Z,24.62
2017-08-06T12:09:10.318Z,24.55
2017-08-06T12:11:38.223Z,24.44
2017-08-06T12:14:06.162Z,24.38
2017-08-06T12:16:34.084Z,24.40
2017-08-06T12:19:02.404Z,24.34
2017-08-06T12:21:30.347Z,24.11
2017-08-06T12:23:58.261Z,24.23
2017-08-06T12:26:26.175Z,24.39
2017-08-06T12:28:54.081Z,24.44
2017-08-06T12:31:22.008Z,24.49
2017-08-06T12:33:49.934Z,24.43
2017-08-06T12:36:17.859Z,24.27
2017-08-06T12:38:45.772Z,24.35
2017-08-06T12:41:13.696Z,24.23
2017-08-06T12:43:41.629Z,24.22
2017-08-06T12:46:10.214Z,24.28
2017-08-06T12:48:38.527Z,24.16
2017-08-06T12:51:06.448Z,24.09
2017-08-06T12:53:34.763Z,23.92
2017-08-06T12:56:02.673Z,23.73
2017-08-06T12:58:30.601Z,23.62
2017-08-06T13:00:58.540Z,23.64
2017-08-06T13:03:26.555Z,23.80
2017-08-06T13:05:54.468Z,23.93
2017-08-06T13:08:22.396Z,24.02
2017-08-06T13:10:50.309Z,24.18
2017-08-06T13:13:18.519Z,24.29
2017-08-06T13:15:46.695Z,24.32
2017-08-06T13:18:14.809Z,24.42
2017-08-06T13:20:42.711Z,24.56
2017-08-06T13:23:11.022Z,24.56
2017-08-06T13:25:38.944Z,24.75
2017-08-06T13:28:06.861Z,24.79
2017-08-06T13:30:34.779Z,24.82
2017-08-06T13:33:02.697Z,24.87
2017-08-06T13:35:30.635Z,24.81
2017-08-06T13:37:58.952Z,24.66
2017-08-06T13:40:26.977Z,24.68
2017-08-06T13:42:54.875Z,24.74
2017-08-06T13:45:22.808Z,24.88
2017-08-06T13:47:50.731Z,24.76
2017-08-06T13:50:18.653Z,24.66
2017-08-06T13:52:46.560Z,24.79
2017-08-06T13:55:14.679Z,24.88
2017-08-06T13:57:42.697Z,24.91
2017-08-06T14:00:10.616Z,24.96
2017-08-06T14:02:38.543Z,24.74
2017-08-06T14:05:06.452Z,24.50
2017-08-06T14:07:34.387Z,24.56
2017-08-06T14:10:02.288Z,24.51
2017-08-06T14:12:30.203Z,24.50
2017-08-06T14:14:58.116Z,24.39
2017-08-06T14:17:26.098Z,24.17
2017-08-06T14:19:54.004Z,23.96
2017-08-06T14:22:22.321Z,23.88
2017-08-06T14:24:50.236Z,24.05
2017-08-06T14:27:18.711Z,24.18
2017-08-06T14:29:46.677Z,24.20
2017-08-06T14:32:14.605Z,24.25
2017-08-06T14:34:42.532Z,24.34
2017-08-06T14:37:10.886Z,24.41
2017-08-06T14:39:38.807Z,24.51
2017-08-06T14:42:06.720Z,24.49
2017-08-06T14:44:34.645Z,24.69
2017-08-06T14:47:02.557Z,24.68
2017-08-06T14:49:30.482Z,24.85
2017-08-06T14:51:58.400Z,25.01
2017-08-06T14:54:26.350Z,25.10
2017-08-06T14:56:54.278Z,25.14
2017-08-06T14:59:22.215Z,25.33
2017-08-06T15:01:50.219Z,25.33
2017-08-06T15:04:18.368Z,25.21
2017-08-06T15:06:46.663Z,25.08
2017-08-06T15:09:14.578Z,25.27
2017-08-06T15:11:42.505Z,24.99
2017-08-06T15:14:10.413Z,24.99
2017-08-06T15:16:38.339Z,24.96
2017-08-06T15:19:06.274Z,24.97
2017-08-06T15:21:34.200Z,24.86
2017-08-06T15:24:02.114Z,24.83
2017-08-06T15:26:30.192Z,24.71
2017-08-06T15:28:58.087Z,24.60
2017-08-06T15:31:25.995Z,24.41
2017-08-06T15:33:53.898Z,24.45
2017-08-06T15:36:22.281Z,24.41
2017-08-06T15:38:50.601Z,24.49
2017-08-06T15:41:18.516Z,24.60
2017-08-06T15:43:46.779Z,24.58
2017-08-06T15:46:14.691Z,24.53
2017-08-06T15:48:42.599Z,24.37
2017-08-06T15:51:10.530Z,24.52
2017-08-06T15:53:38.445Z,24.63
2017-08-06T15:56:06.375Z,24.61
2017-08-06T15:58:34.289Z,24.70
2017-08-06T16:01:02.217Z,24.77
2017-08-06T16:03:30.119Z,24.60
2017-08-06T16:05:58.045Z,24.38
2017-08-06T16:08:25.957Z,24.36
2017-08-06T16:10:54.047Z,24.47
2017-08-06T16:13:21.967Z,24.67
2017-08-06T16:15:49.897Z,24.46
2017-08-06T16:18:18.208Z,24.40
2017-08-06T16:20:46.116Z,24.59
2017-08-06T16:23:14.039Z,24.63
2017-08-06T16:25:41.964Z,24.55
2017-08-06T16:28:09.879Z,24.50
2017-08-06T16:30:37.787Z,24.36
2017-08-06T16:33:05.701Z,24.22
2017-08-06T16:35:34.010Z,24.12
2017-08-06T16:38:01.979Z,23.94
2017-08-06T16:40:29.902Z,23.96
2017-08-06T16:42:58.379Z,24.03
2017-08-06T16:45:26.299Z,23.83
2017-08-06T16:47:54.220Z,23.83
2017-08-06T16:50:22.153Z,23.78
2017-08-06T16:52:50.077Z,23.64
2017-08-06T16:55:18.397Z,23.68
2017-08-06T16:57:46.317Z,23.69
2017-08-06T17:00:14.634Z,23.64
2017-08-06T17:02:42.539Z,23.64
2017-08-06T17:05:10.679Z,23.60
2017-08-06T17:07:38.587Z,23.53
2017-08-06T17:10:06.494Z,23.51
2017-08-06T17:12:34.426Z,23.43
2017-08-06T17:15:02.326Z,23.42
2017-08-06T17:17:30.360Z,23.40
2017-08-06T17:19:58.289Z,23.32
2017-08-06T17:22:26.220Z,23.41
2017-08-06T17:24:54.531Z,23.27
2017-08-06T17:27:22.473Z,23.41
2017-08-06T17:29:50.787Z,23.42
2017-08-06T17:32:18.704Z,23.42
2017-08-06T17:34:47.007Z,23.48
2017-08-06T17:37:15.263Z,23.39
2017-08-06T17:39:43.578Z,23.31
2017-08-06T17:42:11.495Z,23.31
2017-08-06T17:44:39.415Z,23.33
2017-08-06T17:47:07.564Z,23.11
2017-08-06T17:49:35.474Z,22.99
2017-08-06T17:52:03.387Z,22.90
2017-08-06T17:54:31.703Z,22.92
2017-08-06T17:56:59.632Z,22.96
2017-08-06T17:59:28.106Z,22.78
2017-08-06T18:01:56.028Z,22.69
2017-08-06T18:04:23.986Z,22.54
2017-08-06T18:06:51.932Z,22.51
2017-08-06T18:09:20.248Z,22.44
2017-08-06T18:11:48.155Z,22.41
2017-08-06T18:14:16.072Z,22.20
2017-08-06T18:16:43.982Z,22.15
2017-08-06T18:19:11.901Z,22.10
2017-08-06T18:21:39.826Z,21.96
2017-08-06T18:24:07.748Z,21.89
2017-08-06T18:26:35.713Z,21.83
2017-08-06T18:29:03.748Z,21.67
2017-08-06T18:31:32.311Z,21.65
2017-08-06T18:34:00.225Z,21.55
2017-08-06T18:36:28.146Z,21.52
2017-08-06T18:38:56.088Z,21.42
2017-08-06T18:41:24.000Z,21.36
2017-08-06T18:43:51.930Z,21.24
2017-08-06T18:46:19.856Z,21.18
2017-08-06T18:48:48.416Z,21.07
2017-08-06T18:51:16.439Z,21.05
2017-08-06T18:53:44.373Z,20.97
2017-08-06T18:56:12.710Z,20.92
2017-08-06T18:58:40.708Z,20.90
2017-08-06T19:01:08.640Z,20.77
2017-08-06T19:03:36.551Z,20.71
2017-08-06T19:06:04.473Z,20.64
2017-08-06T19:08:32.384Z,20.65
2017-08-06T19:11:00.313Z,20.49
2017-08-06T19:13:28.272Z,20.42
2017-08-06T19:15:56.306Z,20.38
2017-08-06T19:18:24.607Z,20.31
2017-08-06T19:20:52.516Z,20.26
2017-08-06T19:23:20.449Z,20.15
2017-08-06T19:25:48.360Z,20.17
2017-08-06T19:28:16.296Z,20.10
2017-08-06T19:30:44.214Z,20.02
2017-08-06T19:33:12.140Z,20.02
2017-08-06T19:35:40.060Z,19.91
2017-08-06T19:38:08.541Z,19.93
2017-08-06T19:40:36.865Z,19.88
2017-08-06T19:43:04.793Z,19.70
2017-08-06T19:45:33.130Z,19.68
2017-08-06T19:48:01.121Z,19.62
2017-08-06T19:50:29.050Z,19.59
2017-08-06T19:52:57.062Z,19.54
2017-08-06T19:55:25.001Z,19.50
2017-08-06T19:57:52.919Z,19.37
2017-08-06T20:00:21.248Z,19.31
2017-08-06T20:02:49.924Z,19.25
2017-08-06T20:05:18.234Z,19.19
2017-08-06T20:07:46.134Z,19.15
2017-08-06T20:10:14.443Z,19.09
2017-08-06T20:12:42.379Z,19.07
2017-08-06T20:15:11.161Z,19.04
2017-08-06T20:17:39.471Z,19.00
2017-08-06T20:20:07.388Z,18.98
2017-08-06T20:22:35.731Z,18.91
2017-08-06T20:25:03.647Z,18.91
2017-08-06T20:27:31.560Z,18.91
2017-08-06T20:29:59.585Z,18.81
2017-08-06T20:32:27.796Z,18.79
2017-08-06T20:34:55.725Z,18.84
2017-08-06T20:37:23.635Z,18.73
2017-08-06T20:39:51.769Z,18.73
2017-08-06T20:42:19.678Z,18.65
2017-08-06T20:44:47.589Z,18.61
2017-08-06T20:47:15.519Z,18.67
2017-08-06T20:49:43.427Z,18.62
2017-08-06T20:52:11.364Z,18.61
2017-08-06T20:54:39.283Z,18.63
2017-08-06T20:57:07.217Z,18.61
2017-08-06T20:59:35.131Z,18.58
2017-08-06T21:02:03.469Z,18.62
2017-08-06T21:04:31.413Z,18.56
2017-08-06T21:06:59.331Z,18.57
2017-08-06T21:09:27.262Z,18.56
2017-08-06T21:11:55.181Z,18.58
2017-08-06T21:14:23.647Z,18.53
2017-08-06T21:16:51.868Z,18.45
2017-08-06T21:19:19.770Z,18.36
2017-08-06T21:21:47.691Z,18.31
2017-08-06T21:24:16.001Z,18.34
2017-08-06T21:26:43.934Z,18.28
2017-08-06T21:29:11.847Z,18.27
2017-08-06T21:31:40.045Z,18.17
2017-08-06T21:34:07.956Z,18.20
2017-08-06T21:36:35.935Z,18.20
2017-08-06T21:39:03.851Z,18.10
2017-08-06T21:41:31.779Z,18.14
2017-08-06T21:43:59.702Z,18.10
2017-08-06T21:46:27.636Z,18.02
2017-08-06T21:48:55.577Z,18.06
2017-08-06T21:51:23.493Z,18.08
2017-08-06T21:53:51.432Z,18.12
2017-08-06T21:56:19.359Z,18.16
2017-08-06T21:58:47.832Z,18.17
2017-08-06T22:01:16.927Z,18.15
2017-08-06T22:03:44.841Z,18.10
2017-08-06T22:06:12.753Z,18.06
2017-08-06T22:08:40.673Z,18.04
2017-08-06T22:11:08.603Z,17.94
2017-08-06T22:13:36.533Z,17.89
2017-08-06T22:16:04.447Z,17.88
2017-08-06T22:18:32.833Z,17.82
2017-08-06T22:21:01.353Z,17.85
2017-08-06T22:23:29.270Z,17.82
2017-08-06T22:25:57.174Z,17.77
2017-08-06T22:28:25.098Z,17.79
2017-08-06T22:30:53.007Z,17.73
2017-08-06T22:33:20.927Z,17.67
2017-08-06T22:35:48.846Z,17.62
2017-08-06T22:38:16.759Z,17.60
2017-08-06T22:40:44.663Z,17.66
2017-08-06T22:43:13.178Z,17.64
2017-08-06T22:45:41.095Z,17.60
2017-08-06T22:48:09.073Z,17.53
2017-08-06T22:50:37.163Z,17.50
2017-08-06T22:53:06.142Z,17.45
2017-08-06T22:55:34.102Z,17.45
2017-08-06T22:58:02.030Z,17.43
2017-08-06T23:00:29.976Z,17.39
2017-08-06T23:02:57.906Z,17.34
2017-08-06T23:05:25.825Z,17.29
2017-08-06T23:07:53.743Z,17.22
2017-08-06T23:10:21.672Z,17.21
2017-08-06T23:12:49.580Z,17.20
2017-08-06T23:15:17.859Z,17.17
2017-08-06T23:17:45.772Z,17.15
2017-08-06T23:20:13.683Z,17.11
2017-08-06T23:22:41.604Z,16.97
2017-08-06T23:25:09.520Z,16.95
2017-08-06T23:27:37.449Z,16.94
2017-08-06T23:30:05.361Z,16.91
2017-08-06T23:32:33.292Z,16.88
2017-08-06T23:35:01.207Z,16.85
2017-08-06T23:37:29.743Z,16.84
2017-08-06T23:39:57.886Z,16.73
2017-08-06T23:42:26.179Z,16.73
2017-08-06T23:44:54.118Z,16.71
2017-08-06T23:47:22.033Z,16.61
2017-08-06T23:49:49.957Z,16.70
2017-08-06T23:52:17.870Z,16.62
2017-08-06T23:54:45.792Z,16.62
2017-08-06T23:57:13.702Z,16.56
2017-08-06T23:59:41.636Z,16.44
